sensor_id;sensor_type;location;lat;lon;timestamp;pressure;altitude;pressure_sealevel;temperature;humidity
69842;BME280;57138;51.326;-0.068;2023-04-06T00:00:38;99725.56;;;7.82;98.41
69842;BME280;57138;51.326;-0.068;2023-04-06T00:03:04;99736.34;;;7.88;98.06
69842;BME280;57138;51.326;-0.068;2023-04-06T00:05:30;99717.03;;;7.86;97.93
69842;BME280;57138;51.326;-0.068;2023-04-06T00:07:57;99724.03;;;7.87;97.92
69842;BME280;57138;51.326;-0.068;2023-04-06T00:10:23;99720.81;;;7.92;97.50
69842;BME280;57138;51.326;-0.068;2023-04-06T00:12:48;99714.00;;;7.89;98.33
69842;BME280;57138;51.326;-0.068;2023-04-06T00:15:14;99707.69;;;7.90;97.84
69842;BME280;57138;51.326;-0.068;2023-04-06T00:17:39;99707.31;;;7.94;98.59
69842;BME280;57138;51.326;-0.068;2023-04-06T00:20:05;99704.00;;;7.91;98.75
69842;BME280;57138;51.326;-0.068;2023-04-06T00:22:31;99704.84;;;7.92;97.84
69842;BME280;57138;51.326;-0.068;2023-04-06T00:24:57;99705.66;;;7.92;97.88
69842;BME280;57138;51.326;-0.068;2023-04-06T00:27:22;99706.03;;;7.89;98.77
69842;BME280;57138;51.326;-0.068;2023-04-06T00:29:47;99691.09;;;7.88;98.47
69842;BME280;57138;51.326;-0.068;2023-04-06T00:32:13;99692.72;;;7.89;98.50
69842;BME280;57138;51.326;-0.068;2023-04-06T00:34:38;99685.78;;;7.88;99.52
69842;BME280;57138;51.326;-0.068;2023-04-06T00:37:04;99687.50;;;7.81;98.72
69842;BME280;57138;51.326;-0.068;2023-04-06T00:39:29;99684.03;;;7.81;98.73
69842;BME280;57138;51.326;-0.068;2023-04-06T00:41:55;99679.50;;;7.81;99.45
69842;BME280;57138;51.326;-0.068;2023-04-06T00:44:21;99685.09;;;7.86;99.56
69842;BME280;57138;51.326;-0.068;2023-04-06T00:46:47;99676.50;;;7.84;99.92
69842;BME280;57138;51.326;-0.068;2023-04-06T00:49:12;99673.56;;;7.79;100.00
69842;BME280;57138;51.326;-0.068;2023-04-06T00:51:38;99674.47;;;7.86;100.00
69842;BME280;57138;51.326;-0.068;2023-04-06T00:54:04;99673.28;;;7.89;100.00
69842;BME280;57138;51.326;-0.068;2023-04-06T00:56:29;99669.97;;;7.87;99.40
69842;BME280;57138;51.326;-0.068;2023-04-06T00:58:55;99661.81;;;7.88;99.79
69842;BME280;57138;51.326;-0.068;2023-04-06T01:01:20;99663.81;;;7.86;99.73
69842;BME280;57138;51.326;-0.068;2023-04-06T01:03:46;99649.06;;;7.84;100.00
69842;BME280;57138;51.326;-0.068;2023-04-06T01:06:14;99653.91;;;7.80;100.00
69842;BME280;57138;51.326;-0.068;2023-04-06T01:08:40;99647.59;;;7.81;100.00
69842;BME280;57138;51.326;-0.068;2023-04-06T01:11:05;99634.00;;;7.76;100.00
69842;BME280;57138;51.326;-0.068;2023-04-06T01:13:30;99634.19;;;7.74;100.00
69842;BME280;57138;51.326;-0.068;2023-04-06T01:15:56;99637.03;;;7.73;100.00
69842;BME280;57138;51.326;-0.068;2023-04-06T01:18:28;99641.81;;;7.78;100.00
69842;BME280;57138;51.326;-0.068;2023-04-06T01:20:54;99622.34;;;7.77;100.00
69842;BME280;57138;51.326;-0.068;2023-04-06T01:23:20;99612.97;;;7.81;100.00
69842;BME280;57138;51.326;-0.068;2023-04-06T01:25:45;99612.97;;;7.81;100.00
69842;BME280;57138;51.326;-0.068;2023-04-06T01:28:12;99612.59;;;7.84;100.00
69842;BME280;57138;51.326;-0.068;2023-04-06T01:30:38;99612.78;;;7.83;100.00
69842;BME280;57138;51.326;-0.068;2023-04-06T01:33:04;99613.59;;;7.83;100.00
69842;BME280;57138;51.326;-0.068;2023-04-06T01:35:30;99610.94;;;7.83;100.00
69842;BME280;57138;51.326;-0.068;2023-04-06T01:37:56;99595.72;;;7.77;100.00
69842;BME280;57138;51.326;-0.068;2023-04-06T01:40:21;99600.66;;;7.80;100.00
69842;BME280;57138;51.326;-0.068;2023-04-06T01:42:47;99596.38;;;7.79;100.00
69842;BME280;57138;51.326;-0.068;2023-04-06T01:45:13;99582.03;;;7.80;100.00
69842;BME280;57138;51.326;-0.068;2023-04-06T01:47:39;99589.03;;;7.81;100.00
69842;BME280;57138;51.326;-0.068;2023-04-06T01:50:05;99579.38;;;7.80;100.00
69842;BME280;57138;51.326;-0.068;2023-04-06T01:52:32;99586.63;;;7.86;100.00
69842;BME280;57138;51.326;-0.068;2023-04-06T01:54:59;99575.97;;;7.86;100.00
69842;BME280;57138;51.326;-0.068;2023-04-06T01:57:24;99580.31;;;7.87;100.00
69842;BME280;57138;51.326;-0.068;2023-04-06T01:59:50;99572.06;;;7.82;100.00
69842;BME280;57138;51.326;-0.068;2023-04-06T02:02:16;99575.16;;;7.86;100.00
69842;BME280;57138;51.326;-0.068;2023-04-06T02:04:45;99561.41;;;7.82;100.00
69842;BME280;57138;51.326;-0.068;2023-04-06T02:07:10;99561.84;;;7.86;100.00
69842;BME280;57138;51.326;-0.068;2023-04-06T02:09:36;99567.63;;;7.89;100.00
69842;BME280;57138;51.326;-0.068;2023-04-06T02:12:02;99557.34;;;7.86;100.00
69842;BME280;57138;51.326;-0.068;2023-04-06T02:14:28;99555.34;;;7.88;100.00
69842;BME280;57138;51.326;-0.068;2023-04-06T02:16:55;99549.72;;;7.83;100.00
69842;BME280;57138;51.326;-0.068;2023-04-06T02:19:22;99549.34;;;7.86;100.00
69842;BME280;57138;51.326;-0.068;2023-04-06T02:21:48;99545.06;;;7.85;100.00
69842;BME280;57138;51.326;-0.068;2023-04-06T02:24:13;99536.91;;;7.87;100.00
69842;BME280;57138;51.326;-0.068;2023-04-06T02:26:39;99539.38;;;7.88;100.00
69842;BME280;57138;51.326;-0.068;2023-04-06T02:29:04;99538.97;;;7.91;100.00
69842;BME280;57138;51.326;-0.068;2023-04-06T02:31:31;99540.00;;;7.90;100.00
69842;BME280;57138;51.326;-0.068;2023-04-06T02:33:56;99538.53;;;7.88;100.00
69842;BME280;57138;51.326;-0.068;2023-04-06T02:36:22;99532.63;;;7.92;100.00
69842;BME280;57138;51.326;-0.068;2023-04-06T02:38:50;99533.66;;;7.91;100.00
69842;BME280;57138;51.326;-0.068;2023-04-06T02:41:17;99526.88;;;7.89;100.00
69842;BME280;57138;51.326;-0.068;2023-04-06T02:43:42;99520.09;;;7.86;100.00
69842;BME280;57138;51.326;-0.068;2023-04-06T02:46:08;99523.41;;;7.88;100.00
69842;BME280;57138;51.326;-0.068;2023-04-06T02:48:33;99521.13;;;7.85;100.00
69842;BME280;57138;51.326;-0.068;2023-04-06T02:51:01;99523.22;;;7.90;100.00
69842;BME280;57138;51.326;-0.068;2023-04-06T02:53:31;99524.03;;;7.90;100.00
69842;BME280;57138;51.326;-0.068;2023-04-06T02:55:57;99519.47;;;7.84;100.00
69842;BME280;57138;51.326;-0.068;2023-04-06T02:58:22;99506.16;;;7.84;100.00
69842;BME280;57138;51.326;-0.068;2023-04-06T03:00:47;99510.09;;;7.88;100.00
69842;BME280;57138;51.326;-0.068;2023-04-06T03:03:13;99509.25;;;7.88;100.00
69842;BME280;57138;51.326;-0.068;2023-04-06T03:05:38;99496.13;;;7.86;100.00
69842;BME280;57138;51.326;-0.068;2023-04-06T03:08:04;99492.03;;;7.84;100.00
69842;BME280;57138;51.326;-0.068;2023-04-06T03:10:29;99501.63;;;7.85;100.00
69842;BME280;57138;51.326;-0.068;2023-04-06T03:12:55;99492.03;;;7.84;100.00
69842;BME280;57138;51.326;-0.068;2023-04-06T03:15:20;99491.47;;;7.88;100.00
69842;BME280;57138;51.326;-0.068;2023-04-06T03:17:45;99482.81;;;7.86;100.00
69842;BME280;57138;51.326;-0.068;2023-04-06T03:20:11;99494.75;;;7.90;100.00
69842;BME280;57138;51.326;-0.068;2023-04-06T03:22:36;99484.47;;;7.87;100.00
69842;BME280;57138;51.326;-0.068;2023-04-06T03:25:02;99479.53;;;7.84;100.00
69842;BME280;57138;51.326;-0.068;2023-04-06T03:27:27;99479.34;;;7.86;100.00
69842;BME280;57138;51.326;-0.068;2023-04-06T03:29:53;99477.50;;;7.86;100.00
69842;BME280;57138;51.326;-0.068;2023-04-06T03:32:18;99487.78;;;7.89;100.00
69842;BME280;57138;51.326;-0.068;2023-04-06T03:34:44;99464.94;;;7.80;100.00
69842;BME280;57138;51.326;-0.068;2023-04-06T03:37:09;99478.78;;;7.90;100.00
69842;BME280;57138;51.326;-0.068;2023-04-06T03:39:35;99480.22;;;7.93;100.00
69842;BME280;57138;51.326;-0.068;2023-04-06T03:42:00;99471.41;;;7.92;100.00
69842;BME280;57138;51.326;-0.068;2023-04-06T03:44:26;99472.88;;;7.95;100.00
69842;BME280;57138;51.326;-0.068;2023-04-06T03:46:51;99460.78;;;7.92;100.00
69842;BME280;57138;51.326;-0.068;2023-04-06T03:49:16;99461.41;;;7.95;100.00
69842;BME280;57138;51.326;-0.068;2023-04-06T03:51:42;99470.22;;;7.95;100.00
69842;BME280;57138;51.326;-0.068;2023-04-06T03:54:07;99458.72;;;7.95;100.00
69842;BME280;57138;51.326;-0.068;2023-04-06T03:56:33;99461.59;;;7.93;100.00
69842;BME280;57138;51.326;-0.068;2023-04-06T03:58:58;99460.59;;;7.94;100.00
69842;BME280;57138;51.326;-0.068;2023-04-06T04:01:23;99455.06;;;7.96;100.00
69842;BME280;57138;51.326;-0.068;2023-04-06T04:03:49;99460.00;;;7.99;100.00
69842;BME280;57138;51.326;-0.068;2023-04-06T04:06:14;99449.13;;;7.94;100.00
69842;BME280;57138;51.326;-0.068;2023-04-06T04:08:40;99451.03;;;8.00;100.00
69842;BME280;57138;51.326;-0.068;2023-04-06T04:11:05;99446.50;;;8.00;100.00
69842;BME280;57138;51.326;-0.068;2023-04-06T04:13:31;99452.28;;;8.04;100.00
69842;BME280;57138;51.326;-0.068;2023-04-06T04:15:56;99450.00;;;8.01;100.00
69842;BME280;57138;51.326;-0.068;2023-04-06T04:18:22;99445.69;;;8.00;100.00
69842;BME280;57138;51.326;-0.068;2023-04-06T04:20:47;99450.00;;;8.01;100.00
69842;BME280;57138;51.326;-0.068;2023-04-06T04:23:12;99445.31;;;8.03;100.00
69842;BME280;57138;51.326;-0.068;2023-04-06T04:25:38;99451.88;;;8.07;100.00
69842;BME280;57138;51.326;-0.068;2023-04-06T04:28:03;99449.41;;;8.05;100.00
69842;BME280;57138;51.326;-0.068;2023-04-06T04:30:29;99446.94;;;8.04;100.00
69842;BME280;57138;51.326;-0.068;2023-04-06T04:32:54;99442.28;;;8.06;100.00
69842;BME280;57138;51.326;-0.068;2023-04-06T04:35:19;99432.44;;;8.06;100.00
69842;BME280;57138;51.326;-0.068;2023-04-06T04:37:45;99435.53;;;8.10;100.00
69842;BME280;57138;51.326;-0.068;2023-04-06T04:40:11;99425.25;;;8.07;100.00
69842;BME280;57138;51.326;-0.068;2023-04-06T04:42:36;99429.63;;;8.15;100.00
69842;BME280;57138;51.326;-0.068;2023-04-06T04:45:02;99424.88;;;8.10;100.00
69842;BME280;57138;51.326;-0.068;2023-04-06T04:47:27;99430.22;;;8.10;100.00
69842;BME280;57138;51.326;-0.068;2023-04-06T04:49:52;99435.53;;;8.10;100.00
69842;BME280;57138;51.326;-0.068;2023-04-06T04:52:19;99441.50;;;8.12;100.00
69842;BME280;57138;51.326;-0.068;2023-04-06T04:54:45;99439.84;;;8.11;100.00
69842;BME280;57138;51.326;-0.068;2023-04-06T04:57:12;99441.13;;;8.15;100.00
69842;BME280;57138;51.326;-0.068;2023-04-06T04:59:37;99440.09;;;8.16;100.00
69842;BME280;57138;51.326;-0.068;2023-04-06T05:02:03;99431.91;;;8.18;100.00
69842;BME280;57138;51.326;-0.068;2023-04-06T05:04:28;99439.72;;;8.19;100.00
69842;BME280;57138;51.326;-0.068;2023-04-06T05:07:07;99433.75;;;8.17;100.00
69842;BME280;57138;51.326;-0.068;2023-04-06T05:09:33;99435.22;;;8.20;100.00
69842;BME280;57138;51.326;-0.068;2023-04-06T05:11:59;99434.38;;;8.19;100.00
69842;BME280;57138;51.326;-0.068;2023-04-06T05:14:26;99429.94;;;8.26;100.00
69842;BME280;57138;51.326;-0.068;2023-04-06T05:16:51;99427.84;;;8.22;100.00
69842;BME280;57138;51.326;-0.068;2023-04-06T05:19:17;99419.69;;;8.23;100.00
69842;BME280;57138;51.326;-0.068;2023-04-06T05:21:42;99420.50;;;8.24;100.00
69842;BME280;57138;51.326;-0.068;2023-04-06T05:24:07;99425.91;;;8.31;100.00
69842;BME280;57138;51.326;-0.068;2023-04-06T05:26:33;99422.19;;;8.32;100.00
69842;BME280;57138;51.326;-0.068;2023-04-06T05:28:59;99404.50;;;8.24;100.00
69842;BME280;57138;51.326;-0.068;2023-04-06T05:31:25;99417.25;;;8.28;100.00
69842;BME280;57138;51.326;-0.068;2023-04-06T05:33:50;99422.00;;;8.33;100.00
69842;BME280;57138;51.326;-0.068;2023-04-06T05:36:15;99411.91;;;8.28;100.00
69842;BME280;57138;51.326;-0.068;2023-04-06T05:38:41;99413.59;;;8.30;100.00
69842;BME280;57138;51.326;-0.068;2023-04-06T05:41:06;99418.53;;;8.33;100.00
69842;BME280;57138;51.326;-0.068;2023-04-06T05:43:31;99406.59;;;8.28;100.00
69842;BME280;57138;51.326;-0.068;2023-04-06T05:45:57;99405.59;;;8.30;100.00
69842;BME280;57138;51.326;-0.068;2023-04-06T05:48:22;99411.50;;;8.25;100.00
69842;BME280;57138;51.326;-0.068;2023-04-06T05:50:49;99412.31;;;8.25;100.00
69842;BME280;57138;51.326;-0.068;2023-04-06T05:53:18;99415.25;;;8.31;100.00
69842;BME280;57138;51.326;-0.068;2023-04-06T05:55:52;99408.25;;;8.30;100.00
69842;BME280;57138;51.326;-0.068;2023-04-06T05:58:20;99407.44;;;8.29;100.00
69842;BME280;57138;51.326;-0.068;2023-04-06T06:00:45;99404.97;;;8.27;100.00
69842;BME280;57138;51.326;-0.068;2023-04-06T06:03:12;99402.31;;;8.27;100.00
69842;BME280;57138;51.326;-0.068;2023-04-06T06:05:37;99404.59;;;8.31;100.00
69842;BME280;57138;51.326;-0.068;2023-04-06T06:08:02;99408.69;;;8.33;100.00
69842;BME280;57138;51.326;-0.068;2023-04-06T06:10:28;99402.78;;;8.38;100.00
69842;BME280;57138;51.326;-0.068;2023-04-06T06:12:53;99405.06;;;8.41;100.00
69842;BME280;57138;51.326;-0.068;2023-04-06T06:15:19;99409.38;;;8.42;100.00
69842;BME280;57138;51.326;-0.068;2023-04-06T06:17:44;99403.00;;;8.43;100.00
69842;BME280;57138;51.326;-0.068;2023-04-06T06:20:10;99405.13;;;8.48;100.00
69842;BME280;57138;51.326;-0.068;2023-04-06T06:22:36;99407.59;;;8.49;100.00
69842;BME280;57138;51.326;-0.068;2023-04-06T06:25:02;99403.91;;;8.50;100.00
69842;BME280;57138;51.326;-0.068;2023-04-06T06:27:28;99408.84;;;8.53;100.00
69842;BME280;57138;51.326;-0.068;2023-04-06T06:29:53;99415.25;;;8.59;100.00
69842;BME280;57138;51.326;-0.068;2023-04-06T06:32:18;99417.72;;;8.60;100.00
69842;BME280;57138;51.326;-0.068;2023-04-06T06:34:44;99412.81;;;8.64;100.00
69842;BME280;57138;51.326;-0.068;2023-04-06T06:37:09;99414.28;;;8.67;100.00
69842;BME280;57138;51.326;-0.068;2023-04-06T06:39:35;99414.69;;;8.70;100.00
69842;BME280;57138;51.326;-0.068;2023-04-06T06:42:00;99412.47;;;8.74;100.00
69842;BME280;57138;51.326;-0.068;2023-04-06T06:44:27;99406.13;;;8.75;100.00
69842;BME280;57138;51.326;-0.068;2023-04-06T06:46:52;99404.47;;;8.74;100.00
69842;BME280;57138;51.326;-0.068;2023-04-06T06:49:18;99414.34;;;8.80;100.00
69842;BME280;57138;51.326;-0.068;2023-04-06T06:51:44;99419.66;;;8.80;100.00
69842;BME280;57138;51.326;-0.068;2023-04-06T06:54:11;99410.44;;;8.76;100.00
69842;BME280;57138;51.326;-0.068;2023-04-06T06:56:36;99419.28;;;8.83;100.00
69842;BME280;57138;51.326;-0.068;2023-04-06T06:59:03;99417.66;;;8.82;100.00
69842;BME280;57138;51.326;-0.068;2023-04-06T07:01:31;99415.59;;;8.84;100.00
69842;BME280;57138;51.326;-0.068;2023-04-06T07:03:56;99402.06;;;8.86;100.00
69842;BME280;57138;51.326;-0.068;2023-04-06T07:06:22;99404.53;;;8.87;100.00
69842;BME280;57138;51.326;-0.068;2023-04-06T07:08:47;99406.19;;;8.88;100.00
69842;BME280;57138;51.326;-0.068;2023-04-06T07:11:13;99406.63;;;8.92;100.00
69842;BME280;57138;51.326;-0.068;2023-04-06T07:13:38;99402.75;;;8.94;100.00
69842;BME280;57138;51.326;-0.068;2023-04-06T07:16:03;99407.50;;;9.06;100.00
69842;BME280;57138;51.326;-0.068;2023-04-06T07:18:29;99405.06;;;9.11;100.00
69842;BME280;57138;51.326;-0.068;2023-04-06T07:20:54;99405.91;;;9.18;100.00
69842;BME280;57138;51.326;-0.068;2023-04-06T07:23:20;99412.47;;;9.22;100.00
69842;BME280;57138;51.326;-0.068;2023-04-06T07:25:45;99405.53;;;9.21;100.00
69842;BME280;57138;51.326;-0.068;2023-04-06T07:28:11;99408.41;;;9.26;100.00
69842;BME280;57138;51.326;-0.068;2023-04-06T07:30:37;99413.75;;;9.33;100.00
69842;BME280;57138;51.326;-0.068;2023-04-06T07:33:03;99413.75;;;9.33;100.00
69842;BME280;57138;51.326;-0.068;2023-04-06T07:35:33;99419.13;;;9.40;100.00
69842;BME280;57138;51.326;-0.068;2023-04-06T07:38:02;99420.53;;;9.35;100.00
69842;BME280;57138;51.326;-0.068;2023-04-06T07:40:27;99422.81;;;9.39;100.00
69842;BME280;57138;51.326;-0.068;2023-04-06T07:42:53;99428.16;;;9.39;100.00
69842;BME280;57138;51.326;-0.068;2023-04-06T07:45:18;99431.63;;;9.39;100.00
69842;BME280;57138;51.326;-0.068;2023-04-06T07:47:45;99433.47;;;9.39;100.00
69842;BME280;57138;51.326;-0.068;2023-04-06T07:50:11;99445.81;;;9.40;100.00
69842;BME280;57138;51.326;-0.068;2023-04-06T07:52:36;99435.13;;;9.40;100.00
69842;BME280;57138;51.326;-0.068;2023-04-06T07:55:02;99432.88;;;9.37;100.00
69842;BME280;57138;51.326;-0.068;2023-04-06T07:57:27;99433.06;;;9.35;100.00
69842;BME280;57138;51.326;-0.068;2023-04-06T07:59:53;99440.66;;;9.38;100.00
69842;BME280;57138;51.326;-0.068;2023-04-06T08:02:18;99446.59;;;9.33;100.00
69842;BME280;57138;51.326;-0.068;2023-04-06T08:04:44;99448.88;;;9.37;100.00
69842;BME280;57138;51.326;-0.068;2023-04-06T08:07:09;99444.56;;;9.35;100.00
69842;BME280;57138;51.326;-0.068;2023-04-06T08:09:34;99451.53;;;9.37;100.00
69842;BME280;57138;51.326;-0.068;2023-04-06T08:12:00;99452.56;;;9.35;100.00
69842;BME280;57138;51.326;-0.068;2023-04-06T08:14:25;99440.00;;;9.29;100.00
69842;BME280;57138;51.326;-0.068;2023-04-06T08:16:51;99455.63;;;9.32;100.00
69842;BME280;57138;51.326;-0.068;2023-04-06T08:19:16;99448.81;;;9.30;100.00
69842;BME280;57138;51.326;-0.068;2023-04-06T08:21:44;99441.47;;;9.32;100.00
69842;BME280;57138;51.326;-0.068;2023-04-06T08:24:11;99446.22;;;9.37;100.00
69842;BME280;57138;51.326;-0.068;2023-04-06T08:26:36;99447.44;;;9.41;100.00
69842;BME280;57138;51.326;-0.068;2023-04-06T08:29:03;99436.75;;;9.41;100.00
69842;BME280;57138;51.326;-0.068;2023-04-06T08:31:29;99443.75;;;9.42;100.00
69842;BME280;57138;51.326;-0.068;2023-04-06T08:33:55;99442.16;;;9.47;100.00
69842;BME280;57138;51.326;-0.068;2023-04-06T08:36:21;99442.16;;;9.47;100.00
69842;BME280;57138;51.326;-0.068;2023-04-06T08:38:48;99437.63;;;9.48;100.00
69842;BME280;57138;51.326;-0.068;2023-04-06T08:41:15;99441.31;;;9.53;100.00
69842;BME280;57138;51.326;-0.068;2023-04-06T08:43:48;99443.38;;;9.58;100.00
69842;BME280;57138;51.326;-0.068;2023-04-06T08:46:14;99440.09;;;9.63;100.00
69842;BME280;57138;51.326;-0.068;2023-04-06T08:48:41;99452.25;;;9.72;100.00
69842;BME280;57138;51.326;-0.068;2023-04-06T08:51:10;99448.97;;;9.77;100.00
69842;BME280;57138;51.326;-0.068;2023-04-06T08:53:36;99444.06;;;9.87;100.00
69842;BME280;57138;51.326;-0.068;2023-04-06T08:56:04;99446.13;;;9.98;100.00
69842;BME280;57138;51.326;-0.068;2023-04-06T08:58:34;99445.31;;;10.04;100.00
69842;BME280;57138;51.326;-0.068;2023-04-06T09:01:01;99447.19;;;10.11;99.53
69842;BME280;57138;51.326;-0.068;2023-04-06T09:03:28;99444.72;;;10.16;99.92
69842;BME280;57138;51.326;-0.068;2023-04-06T09:05:55;99437.94;;;10.20;99.75
69842;BME280;57138;51.326;-0.068;2023-04-06T09:08:21;99441.22;;;10.22;99.55
69842;BME280;57138;51.326;-0.068;2023-04-06T09:10:47;99451.72;;;10.30;98.95
69842;BME280;57138;51.326;-0.068;2023-04-06T09:13:14;99449.47;;;10.27;98.74
69842;BME280;57138;51.326;-0.068;2023-04-06T09:15:40;99448.47;;;10.35;98.50
69842;BME280;57138;51.326;-0.068;2023-04-06T09:18:05;99446.81;;;10.34;98.16
69842;BME280;57138;51.326;-0.068;2023-04-06T09:20:31;99450.72;;;10.38;98.08
69842;BME280;57138;51.326;-0.068;2023-04-06T09:22:56;99447.66;;;10.41;97.34
69842;BME280;57138;51.326;-0.068;2023-04-06T09:25:23;99443.09;;;10.41;96.82
69842;BME280;57138;51.326;-0.068;2023-04-06T09:27:58;99448.44;;;10.41;97.54
69842;BME280;57138;51.326;-0.068;2023-04-06T09:30:24;99459.13;;;10.41;96.32
69842;BME280;57138;51.326;-0.068;2023-04-06T09:32:55;99453.81;;;10.41;97.26
69842;BME280;57138;51.326;-0.068;2023-04-06T09:35:22;99447.44;;;10.42;96.80
69842;BME280;57138;51.326;-0.068;2023-04-06T09:37:49;99455.66;;;10.41;97.52
69842;BME280;57138;51.326;-0.068;2023-04-06T09:40:17;99461.22;;;10.39;97.15
69842;BME280;57138;51.326;-0.068;2023-04-06T09:42:49;99451.72;;;10.30;96.32
69842;BME280;57138;51.326;-0.068;2023-04-06T09:45:17;99444.31;;;10.25;96.37
69842;BME280;57138;51.326;-0.068;2023-04-06T09:47:44;99460.56;;;10.24;97.03
69842;BME280;57138;51.326;-0.068;2023-04-06T09:50:12;99453.34;;;10.18;96.32
69842;BME280;57138;51.326;-0.068;2023-04-06T09:52:42;99454.59;;;10.15;96.46
69842;BME280;57138;51.326;-0.068;2023-04-06T09:55:08;99446.56;;;10.08;96.43
69842;BME280;57138;51.326;-0.068;2023-04-06T09:57:46;99455.41;;;10.09;97.08
69842;BME280;57138;51.326;-0.068;2023-04-06T10:00:16;99456.81;;;10.05;96.97
69842;BME280;57138;51.326;-0.068;2023-04-06T10:03:00;99462.59;;;10.08;97.80
69842;BME280;57138;51.326;-0.068;2023-04-06T10:05:41;99454.38;;;10.17;98.35
69842;BME280;57138;51.326;-0.068;2023-04-06T10:08:11;99452.97;;;10.34;99.04
69842;BME280;57138;51.326;-0.068;2023-04-06T10:10:39;99456.03;;;10.58;99.10
69842;BME280;57138;51.326;-0.068;2023-04-06T10:13:05;99454.19;;;10.78;97.41
69842;BME280;57138;51.326;-0.068;2023-04-06T10:15:31;99457.81;;;11.04;97.96
69842;BME280;57138;51.326;-0.068;2023-04-06T10:17:58;99463.13;;;11.18;96.36
69842;BME280;57138;51.326;-0.068;2023-04-06T10:20:49;99468.66;;;11.23;95.62
69842;BME280;57138;51.326;-0.068;2023-04-06T10:26:00;99460.66;;;11.09;92.46
69842;BME280;57138;51.326;-0.068;2023-04-06T10:28:31;99465.66;;;10.99;93.95
69842;BME280;57138;51.326;-0.068;2023-04-06T10:30:59;99465.47;;;10.94;93.43
69842;BME280;57138;51.326;-0.068;2023-04-06T10:33:26;99475.13;;;10.88;94.52
69842;BME280;57138;51.326;-0.068;2023-04-06T10:35:52;99471.00;;;10.86;94.12
69842;BME280;57138;51.326;-0.068;2023-04-06T10:38:19;99470.81;;;10.81;93.27
69842;BME280;57138;51.326;-0.068;2023-04-06T10:40:49;99459.31;;;10.73;93.66
69842;BME280;57138;51.326;-0.068;2023-04-06T10:43:19;99478.44;;;10.77;93.61
69842;BME280;57138;51.326;-0.068;2023-04-06T10:45:55;99469.19;;;10.73;92.31
69842;BME280;57138;51.326;-0.068;2023-04-06T10:48:21;99476.41;;;10.72;93.05
69842;BME280;57138;51.326;-0.068;2023-04-06T10:50:48;99486.69;;;10.75;93.27
69842;BME280;57138;51.326;-0.068;2023-04-06T10:53:25;99482.75;;;10.71;93.45
69842;BME280;57138;51.326;-0.068;2023-04-06T10:55:53;99485.03;;;10.74;93.15
69842;BME280;57138;51.326;-0.068;2023-04-06T10:58:19;99488.31;;;10.76;92.67
69842;BME280;57138;51.326;-0.068;2023-04-06T11:00:47;99490.97;;;10.76;92.22
69842;BME280;57138;51.326;-0.068;2023-04-06T11:03:13;99487.69;;;10.74;92.08
69842;BME280;57138;51.326;-0.068;2023-04-06T11:05:46;99497.38;;;10.75;92.32
69842;BME280;57138;51.326;-0.068;2023-04-06T11:08:26;99484.19;;;10.81;92.26
69842;BME280;57138;51.326;-0.068;2023-04-06T11:11:03;99487.28;;;10.91;92.33
69842;BME280;57138;51.326;-0.068;2023-04-06T11:13:42;99481.28;;;11.02;92.47
69842;BME280;57138;51.326;-0.068;2023-04-06T11:16:25;99484.28;;;11.26;91.96
69842;BME280;57138;51.326;-0.068;2023-04-06T11:19:03;99488.56;;;11.47;91.32
69842;BME280;57138;51.326;-0.068;2023-04-06T11:21:39;99490.94;;;11.62;90.22
69842;BME280;57138;51.326;-0.068;2023-04-06T11:24:21;99496.91;;;11.64;89.43
69842;BME280;57138;51.326;-0.068;2023-04-06T11:26:54;99499.78;;;11.69;89.07
69842;BME280;57138;51.326;-0.068;2023-04-06T11:29:25;99488.22;;;11.75;89.81
69842;BME280;57138;51.326;-0.068;2023-04-06T11:31:53;99492.44;;;11.90;89.58
69842;BME280;57138;51.326;-0.068;2023-04-06T11:34:21;99478.81;;;11.98;88.15
69842;BME280;57138;51.326;-0.068;2023-04-06T11:36:49;99503.03;;;12.16;86.61
69842;BME280;57138;51.326;-0.068;2023-04-06T11:39:21;99496.81;;;12.22;86.33
69842;BME280;57138;51.326;-0.068;2023-04-06T11:41:51;99500.06;;;12.25;82.89
69842;BME280;57138;51.326;-0.068;2023-04-06T11:46:57;99505.19;;;12.33;85.78
69842;BME280;57138;51.326;-0.068;2023-04-06T11:49:27;99508.47;;;12.35;83.84
69842;BME280;57138;51.326;-0.068;2023-04-06T11:51:53;99508.69;;;12.33;83.63
69842;BME280;57138;51.326;-0.068;2023-04-06T11:54:44;99510.13;;;12.36;83.91
69842;BME280;57138;51.326;-0.068;2023-04-06T11:57:10;99506.81;;;12.34;84.68
69842;BME280;57138;51.326;-0.068;2023-04-06T11:59:36;99501.44;;;12.34;82.59
69842;BME280;57138;51.326;-0.068;2023-04-06T12:02:02;99508.25;;;12.36;82.34
69842;BME280;57138;51.326;-0.068;2023-04-06T12:04:28;99495.50;;;12.32;81.46
69842;BME280;57138;51.326;-0.068;2023-04-06T12:06:54;99504.34;;;12.32;80.35
69842;BME280;57138;51.326;-0.068;2023-04-06T12:09:20;99496.97;;;12.28;82.25
69842;BME280;57138;51.326;-0.068;2023-04-06T12:11:46;99506.22;;;12.32;82.57
69842;BME280;57138;51.326;-0.068;2023-04-06T12:14:12;99494.47;;;12.33;83.22
69842;BME280;57138;51.326;-0.068;2023-04-06T12:16:38;99510.28;;;12.41;81.93
69842;BME280;57138;51.326;-0.068;2023-04-06T12:19:04;99508.81;;;12.45;81.73
69842;BME280;57138;51.326;-0.068;2023-04-06T12:21:35;99508.97;;;12.50;82.29
69842;BME280;57138;51.326;-0.068;2023-04-06T12:24:05;99506.84;;;12.59;82.72
69842;BME280;57138;51.326;-0.068;2023-04-06T12:26:31;99506.34;;;12.69;79.22
69842;BME280;57138;51.326;-0.068;2023-04-06T12:28:58;99503.38;;;12.77;80.89
69842;BME280;57138;51.326;-0.068;2023-04-06T12:31:37;99503.72;;;12.87;77.37
69842;BME280;57138;51.326;-0.068;2023-04-06T12:34:07;99501.06;;;13.06;79.19
69842;BME280;57138;51.326;-0.068;2023-04-06T12:36:33;99498.50;;;13.11;77.76
69842;BME280;57138;51.326;-0.068;2023-04-06T12:38:59;99496.56;;;13.18;75.47
69842;BME280;57138;51.326;-0.068;2023-04-06T12:41:25;99498.06;;;13.33;76.93
69842;BME280;57138;51.326;-0.068;2023-04-06T12:43:51;99504.06;;;13.35;78.81
69842;BME280;57138;51.326;-0.068;2023-04-06T12:46:17;99501.66;;;13.26;72.33
69842;BME280;57138;51.326;-0.068;2023-04-06T12:48:42;99506.56;;;13.29;75.29
69842;BME280;57138;51.326;-0.068;2023-04-06T12:51:08;99509.97;;;13.18;74.09
69842;BME280;57138;51.326;-0.068;2023-04-06T12:53:34;99504.03;;;13.16;74.22